Time;durP1;ratioP1;P1;durP2;ratioP2;P2;SDS_P1;SDS_P2;PMS_P1;PMS_P2;Temp;Humidity;BMP_temperature;BMP_pressure;BME280_temperature;BME280_humidity;BME280_pressure;Samples;Min_cycle;Max_cycle;Signal;HPM_P1;HPM_P2
2022/06/10 00:00:20;;;;;;;12.00;8.85;;;19.50;99.90;;;;;;5080051;28;20209;-67
2022/06/10 00:02:46;;;;;;;10.30;8.88;;;19.40;99.90;;;;;;5083056;28;20204;-68
2022/06/10 00:05:15;;;;;;;8.90;8.00;;;19.40;99.90;;;;;;5085397;28;20204;-68
2022/06/10 00:07:42;;;;;;;9.18;8.27;;;19.50;99.90;;;;;;5092123;28;20226;-67
2022/06/10 00:10:11;;;;;;;8.73;7.93;;;19.40;99.90;;;;;;5082399;28;20209;-67
2022/06/10 00:12:40;;;;;;;8.40;7.60;;;19.40;99.90;;;;;;5077148;28;20213;-67
2022/06/10 00:15:08;;;;;;;9.05;8.23;;;19.40;99.90;;;;;;5086643;28;20239;-68
2022/06/10 00:17:35;;;;;;;10.43;8.13;;;19.40;99.90;;;;;;5081063;28;20628;-67
2022/06/10 00:20:03;;;;;;;8.55;7.75;;;19.40;99.90;;;;;;5071932;28;20634;-68
2022/06/10 00:22:30;;;;;;;9.13;8.23;;;19.40;99.90;;;;;;5071795;28;20223;-68
2022/06/10 00:24:57;;;;;;;9.45;8.60;;;19.40;99.90;;;;;;5071273;28;20613;-67
2022/06/10 00:27:24;;;;;;;8.93;8.02;;;19.30;99.90;;;;;;5078066;28;20673;-68
2022/06/10 00:29:52;;;;;;;9.27;8.43;;;19.30;99.90;;;;;;5071939;28;20229;-68
2022/06/10 00:32:18;;;;;;;13.38;8.68;;;19.30;99.90;;;;;;5072301;28;20205;-68
2022/06/10 00:34:45;;;;;;;8.45;7.68;;;19.30;99.90;;;;;;5071639;28;20213;-67
2022/06/10 00:37:12;;;;;;;9.57;8.75;;;19.30;99.90;;;;;;5079409;28;20196;-68
2022/06/10 00:39:39;;;;;;;8.55;7.85;;;19.30;99.90;;;;;;5084875;28;20205;-68
2022/06/10 00:42:07;;;;;;;9.63;8.27;;;19.30;99.90;;;;;;5086292;28;20212;-67
2022/06/10 00:44:39;;;;;;;9.30;8.40;;;19.30;99.90;;;;;;5075630;28;20661;-67
2022/06/10 00:47:16;;;;;;;8.63;7.80;;;19.30;99.90;;;;;;5078090;28;20673;-67
2022/06/10 00:49:47;;;;;;;10.45;9.07;;;19.30;99.90;;;;;;5085834;28;20251;-68
2022/06/10 00:52:22;;;;;;;9.35;8.32;;;19.30;99.90;;;;;;5080380;28;20575;-67
2022/06/10 00:54:50;;;;;;;9.15;8.25;;;19.30;99.90;;;;;;5083160;28;20213;-68
2022/06/10 00:57:20;;;;;;;10.25;9.27;;;19.40;99.90;;;;;;5076186;28;20205;-69
2022/06/10 00:59:50;;;;;;;10.50;8.55;;;19.30;99.90;;;;;;5075945;28;20205;-68
2022/06/10 01:02:20;;;;;;;10.05;9.05;;;19.40;99.90;;;;;;5079434;28;20209;-67
2022/06/10 01:04:48;;;;;;;10.98;8.93;;;19.30;99.90;;;;;;5075436;28;20645;-68
2022/06/10 01:07:20;;;;;;;13.50;9.35;;;19.30;99.90;;;;;;5075172;28;20259;-67
2022/06/10 01:09:49;;;;;;;9.68;8.77;;;19.30;99.90;;;;;;5074704;28;20205;-69
2022/06/10 01:12:44;;;;;;;10.13;9.23;;;19.30;99.90;;;;;;5087028;28;20204;-67
2022/06/10 01:15:30;;;;;;;9.90;8.82;;;19.30;99.90;;;;;;5074877;28;20233;-68
2022/06/10 01:18:16;;;;;;;9.98;9.05;;;19.30;99.90;;;;;;5074412;28;20269;-67
2022/06/10 01:20:52;;;;;;;11.20;10.13;;;19.30;99.90;;;;;;5075012;28;20562;-67
2022/06/10 01:23:47;;;;;;;10.00;9.10;;;19.30;99.90;;;;;;5080698;28;20196;-68
2022/06/10 01:30:03;;;;;;;8.93;8.13;;;19.40;99.90;;;;;;5076787;28;20290;-68
2022/06/10 01:32:35;;;;;;;9.85;8.95;;;19.40;99.90;;;;;;5068967;28;20197;-68
2022/06/10 01:35:16;;;;;;;9.85;8.90;;;19.40;99.90;;;;;;5074615;28;20554;-67
2022/06/10 01:37:49;;;;;;;10.73;9.05;;;19.40;99.90;;;;;;5084505;28;20600;-67
2022/06/10 01:40:24;;;;;;;10.65;9.65;;;19.40;99.90;;;;;;5083122;28;20204;-67
2022/06/10 01:42:55;;;;;;;16.85;9.75;;;19.40;99.90;;;;;;5075003;28;20201;-68
2022/06/10 01:45:32;;;;;;;10.82;9.00;;;19.30;99.90;;;;;;5074153;28;20282;-68
2022/06/10 01:48:05;;;;;;;10.90;9.85;;;19.30;99.90;;;;;;5074257;28;20235;-67
2022/06/10 01:50:38;;;;;;;10.75;9.30;;;19.30;99.90;;;;;;5086684;28;20204;-67
2022/06/10 01:53:12;;;;;;;10.23;9.00;;;19.40;99.90;;;;;;5076378;28;20558;-67
2022/06/10 01:55:46;;;;;;;10.07;9.00;;;19.30;99.90;;;;;;5088388;28;20211;-68
2022/06/10 01:58:20;;;;;;;11.27;8.38;;;19.30;99.90;;;;;;5074032;28;20196;-67
2022/06/10 02:00:49;;;;;;;10.30;9.30;;;19.30;99.90;;;;;;5073281;28;20205;-67
2022/06/10 02:03:22;;;;;;;10.27;9.27;;;19.30;99.90;;;;;;5074154;28;20212;-67
2022/06/10 02:05:53;;;;;;;10.30;9.30;;;19.30;99.90;;;;;;5073926;28;20239;-67
2022/06/10 02:08:27;;;;;;;9.50;8.70;;;19.30;99.90;;;;;;5074309;28;20590;-68
2022/06/10 02:11:00;;;;;;;10.55;8.75;;;19.30;99.90;;;;;;5073437;28;20677;-68
2022/06/10 02:13:30;;;;;;;10.15;9.25;;;19.30;99.90;;;;;;5074193;28;20311;-67
2022/06/10 02:16:01;;;;;;;10.40;9.02;;;19.30;99.90;;;;;;5073687;28;20211;-67
2022/06/10 02:18:35;;;;;;;10.65;8.85;;;19.30;99.90;;;;;;5073451;28;20205;-67
2022/06/10 02:21:06;;;;;;;10.48;9.00;;;19.30;99.90;;;;;;5073461;28;20201;-67
2022/06/10 02:23:39;;;;;;;10.98;9.02;;;19.30;99.90;;;;;;5080763;28;20688;-68
2022/06/10 02:26:08;;;;;;;9.73;8.73;;;19.20;99.90;;;;;;5074104;28;20205;-67
2022/06/10 02:28:39;;;;;;;10.80;8.07;;;19.30;99.90;;;;;;5074000;28;20613;-67
2022/06/10 02:31:12;;;;;;;9.30;8.20;;;19.30;99.90;;;;;;5076039;28;20228;-67
2022/06/10 02:33:40;;;;;;;8.80;7.93;;;19.30;99.90;;;;;;5073587;28;20212;-67
2022/06/10 02:36:13;;;;;;;9.70;8.80;;;19.40;99.90;;;;;;5073617;28;20212;-68
2022/06/10 02:38:53;;;;;;;9.80;8.90;;;19.40;99.90;;;;;;5087386;28;20205;-68
2022/06/10 02:41:28;;;;;;;9.45;8.18;;;19.40;99.90;;;;;;5082492;28;20208;-67
2022/06/10 02:44:02;;;;;;;10.25;9.25;;;19.40;99.90;;;;;;5075223;28;20208;-68
2022/06/10 02:46:33;;;;;;;10.48;9.25;;;19.40;99.90;;;;;;5077236;28;20321;-68
2022/06/10 02:49:07;;;;;;;10.35;9.18;;;19.40;99.90;;;;;;5073966;28;20209;-68
2022/06/10 02:51:34;;;;;;;10.73;9.73;;;19.30;99.90;;;;;;5073186;28;20201;-68
2022/06/10 02:54:03;;;;;;;11.55;10.40;;;19.30;99.90;;;;;;5085501;28;20209;-68
2022/06/10 02:56:30;;;;;;;10.93;9.60;;;19.30;99.90;;;;;;5073535;28;20209;-68
2022/06/10 03:01:56;;;;;;;10.88;9.80;;;19.30;99.90;;;;;;5072577;28;20739;-67
2022/06/10 03:04:35;;;;;;;12.10;10.43;;;19.30;99.90;;;;;;5073288;28;20208;-67
2022/06/10 03:07:21;;;;;;;11.00;10.00;;;19.20;99.90;;;;;;5073534;28;20620;-68
2022/06/10 03:10:01;;;;;;;11.07;9.98;;;19.20;99.90;;;;;;5072867;28;20296;-67
2022/06/10 03:12:36;;;;;;;11.82;10.63;;;19.20;99.90;;;;;;5072869;28;20213;-67
2022/06/10 03:15:16;;;;;;;11.70;10.52;;;19.20;99.90;;;;;;5074331;28;20239;-68
2022/06/10 03:17:54;;;;;;;11.50;9.88;;;19.20;99.90;;;;;;5076360;28;20699;-67
2022/06/10 03:20:28;;;;;;;11.68;10.57;;;19.20;99.90;;;;;;5086943;28;20197;-67
2022/06/10 03:23:13;;;;;;;11.48;10.30;;;19.10;99.90;;;;;;5080568;28;20232;-67
2022/06/10 03:25:43;;;;;;;13.55;10.30;;;19.10;99.90;;;;;;5082650;28;20671;-68
2022/06/10 03:28:15;;;;;;;11.63;9.52;;;19.00;99.90;;;;;;5077963;28;20673;-67
2022/06/10 03:30:49;;;;;;;10.77;9.68;;;19.00;99.90;;;;;;5072848;28;20201;-68
2022/06/10 03:33:23;;;;;;;12.65;9.38;;;19.00;99.90;;;;;;5071721;28;20215;-68
2022/06/10 03:35:54;;;;;;;10.40;9.40;;;18.90;99.90;;;;;;5072305;28;20681;-68
2022/06/10 03:38:22;;;;;;;10.00;9.00;;;18.90;99.90;;;;;;5085332;28;20292;-67
2022/06/10 03:40:54;;;;;;;9.23;8.38;;;18.80;99.90;;;;;;5079041;28;20680;-67
2022/06/10 03:43:22;;;;;;;9.57;8.75;;;18.80;99.90;;;;;;5078553;28;20271;-68
2022/06/10 03:45:53;;;;;;;10.48;9.25;;;18.80;99.90;;;;;;5072047;28;20204;-67
2022/06/10 03:48:23;;;;;;;9.10;8.20;;;18.80;99.90;;;;;;5072045;28;20232;-67
2022/06/10 03:50:52;;;;;;;10.13;7.80;;;18.80;99.90;;;;;;5082690;28;20213;-69
2022/06/10 03:53:21;;;;;;;10.38;7.97;;;18.80;99.90;;;;;;5073514;28;20220;-69
2022/06/10 03:55:48;;;;;;;8.45;7.65;;;18.80;99.90;;;;;;5088069;28;20227;-68
2022/06/10 03:58:16;;;;;;;10.60;8.15;;;18.80;99.90;;;;;;5072334;28;20208;-67
2022/06/10 04:00:43;;;;;;;10.50;8.65;;;18.80;99.90;;;;;;5071805;28;20202;-67
2022/06/10 04:03:10;;;;;;;8.60;7.80;;;18.90;99.90;;;;;;5073272;28;20600;-68
2022/06/10 04:05:37;;;;;;;10.25;8.43;;;18.90;99.90;;;;;;5077913;28;20217;-68
2022/06/10 04:08:06;;;;;;;9.55;8.05;;;18.90;99.90;;;;;;5085919;28;20217;-67
2022/06/10 04:10:33;;;;;;;9.18;7.00;;;19.00;99.90;;;;;;5077866;28;20568;-68
2022/06/10 04:13:00;;;;;;;11.95;7.82;;;19.10;99.90;;;;;;5072582;28;20217;-67
2022/06/10 04:15:27;;;;;;;8.82;7.57;;;19.10;99.90;;;;;;5079996;28;20232;-68
2022/06/10 04:17:56;;;;;;;7.32;6.63;;;19.20;99.90;;;;;;5093288;28;20215;-67
2022/06/10 04:20:26;;;;;;;8.30;7.47;;;19.30;99.90;;;;;;5081281;28;20216;-67
2022/06/10 04:22:53;;;;;;;8.13;7.32;;;19.40;99.90;;;;;;5079277;28;20213;-67
2022/06/10 04:25:21;;;;;;;9.32;6.93;;;19.50;99.90;;;;;;5073744;28;20228;-67
2022/06/10 04:27:49;;;;;;;7.43;6.55;;;19.70;99.90;;;;;;5072324;28;20228;-67
2022/06/10 04:30:26;;;;;;;10.18;7.95;;;19.80;99.90;;;;;;5072092;28;20225;-68
2022/06/10 04:32:54;;;;;;;8.77;7.97;;;19.90;99.90;;;;;;5072698;28;20204;-68
2022/06/10 04:35:21;;;;;;;8.15;7.35;;;20.10;99.90;;;;;;5071922;28;20197;-67
2022/06/10 04:37:50;;;;;;;8.65;6.93;;;20.10;99.90;;;;;;5082498;28;20207;-68
2022/06/10 04:40:22;;;;;;;7.90;7.18;;;20.10;99.90;;;;;;5074566;28;20213;-67
2022/06/10 04:42:49;;;;;;;7.07;6.43;;;20.20;99.90;;;;;;5072148;28;20284;-67
2022/06/10 04:45:19;;;;;;;8.98;8.18;;;20.30;99.90;;;;;;5071841;28;20209;-67
2022/06/10 04:47:45;;;;;;;8.70;7.90;;;20.30;99.90;;;;;;5071972;28;20309;-67
2022/06/10 04:50:15;;;;;;;8.70;7.50;;;20.30;99.90;;;;;;5072778;28;20669;-66
2022/06/10 04:52:42;;;;;;;8.13;7.38;;;20.40;99.90;;;;;;5071981;28;20654;-68
2022/06/10 04:55:09;;;;;;;8.40;7.60;;;20.40;99.90;;;;;;5071988;28;20225;-67
2022/06/10 04:57:38;;;;;;;8.55;7.65;;;20.50;99.90;;;;;;5072223;28;20216;-67
2022/06/10 05:00:06;;;;;;;8.38;7.57;;;20.50;99.90;;;;;;5072088;28;20688;-67
2022/06/10 05:02:34;;;;;;;10.65;8.18;;;20.50;99.90;;;;;;5073967;28;20205;-67
2022/06/10 05:05:00;;;;;;;9.57;8.60;;;20.50;99.90;;;;;;5071742;28;20209;-67
2022/06/10 05:07:27;;;;;;;10.77;8.77;;;20.60;99.90;;;;;;5072046;28;20216;-68
2022/06/10 05:09:54;;;;;;;9.63;8.60;;;20.70;99.90;;;;;;5072416;28;20233;-69
2022/06/10 05:12:21;;;;;;;11.30;8.18;;;20.80;99.90;;;;;;5072429;28;20658;-68
2022/06/10 05:14:49;;;;;;;8.60;7.78;;;20.90;99.90;;;;;;5074238;28;20716;-67
2022/06/10 05:17:15;;;;;;;8.90;7.15;;;20.90;99.90;;;;;;5074625;28;20209;-68
2022/06/10 05:19:42;;;;;;;7.78;7.03;;;21.00;99.90;;;;;;5072385;28;20225;-68
2022/06/10 05:22:09;;;;;;;7.15;6.45;;;21.00;99.90;;;;;;5084415;28;20209;-68
2022/06/10 05:24:36;;;;;;;10.82;6.85;;;21.10;99.90;;;;;;5075686;28;20209;-67
2022/06/10 05:27:03;;;;;;;9.73;7.35;;;21.10;99.90;;;;;;5080056;28;20212;-68
2022/06/10 05:29:30;;;;;;;9.02;7.03;;;21.10;99.90;;;;;;5076532;28;20236;-67
2022/06/10 05:31:58;;;;;;;8.57;7.68;;;21.10;99.90;;;;;;5087797;28;20209;-70
2022/06/10 05:37:09;;;;;;;8.95;8.10;;;21.10;99.90;;;;;;5091239;28;20621;-68
2022/06/10 05:39:36;;;;;;;8.45;7.45;;;21.10;99.90;;;;;;5089443;28;20696;-69
2022/06/10 05:42:06;;;;;;;8.13;7.30;;;21.10;99.90;;;;;;5089502;28;20296;-68
2022/06/10 05:44:34;;;;;;;8.82;8.02;;;21.10;99.90;;;;;;5077733;28;20201;-70
2022/06/10 05:47:03;;;;;;;7.40;6.70;;;21.10;99.90;;;;;;5074996;28;20220;-70
2022/06/10 05:49:31;;;;;;;7.97;7.22;;;21.20;99.90;;;;;;5081324;28;20225;-69
2022/06/10 05:51:58;;;;;;;7.65;6.82;;;21.20;99.90;;;;;;5081690;28;20209;-69
2022/06/10 05:54:25;;;;;;;7.25;6.53;;;21.20;99.90;;;;;;5086812;28;20616;-72
2022/06/10 05:56:52;;;;;;;7.00;6.40;;;21.30;99.90;;;;;;5089000;28;20200;-69
2022/06/10 05:59:19;;;;;;;7.05;6.45;;;21.40;99.90;;;;;;5086642;28;20232;-69
2022/06/10 06:01:46;;;;;;;6.97;6.25;;;21.50;99.90;;;;;;5090039;28;20266;-68
2022/06/10 06:04:14;;;;;;;7.13;6.38;;;21.70;99.90;;;;;;5092570;28;20208;-68
2022/06/10 06:06:43;;;;;;;6.95;6.35;;;21.70;99.90;;;;;;5084496;28;20209;-69
2022/06/10 06:09:13;;;;;;;7.28;5.97;;;21.80;99.90;;;;;;5080598;28;20274;-68
2022/06/10 06:11:40;;;;;;;6.18;5.68;;;21.90;99.90;;;;;;5083195;28;20229;-69
2022/06/10 06:14:07;;;;;;;8.90;5.72;;;21.90;99.90;;;;;;5088768;28;20711;-68
2022/06/10 06:16:35;;;;;;;6.90;6.18;;;22.10;99.90;;;;;;5081403;28;20222;-70
2022/06/10 06:19:02;;;;;;;6.40;5.55;;;22.20;99.90;;;;;;5081630;28;20267;-69
2022/06/10 06:21:31;;;;;;;5.85;5.07;;;22.30;99.90;;;;;;5079366;28;20271;-69
2022/06/10 06:23:58;;;;;;;10.35;6.13;;;22.40;99.90;;;;;;5092856;28;20211;-69
2022/06/10 06:26:25;;;;;;;7.50;6.18;;;22.50;99.90;;;;;;5088393;28;20211;-69
2022/06/10 06:28:51;;;;;;;6.93;6.25;;;22.60;99.90;;;;;;5073568;28;20670;-69
2022/06/10 06:31:18;;;;;;;6.63;5.47;;;22.70;99.90;;;;;;5082439;28;20205;-68
2022/06/10 06:33:45;;;;;;;6.40;5.65;;;22.70;99.90;;;;;;5088739;28;20219;-69
2022/06/10 06:36:17;;;;;;;6.00;5.40;;;22.60;99.90;;;;;;5079498;28;20669;-73
2022/06/10 06:38:45;;;;;;;4.90;4.50;;;22.60;99.90;;;;;;5076591;28;20206;-70
2022/06/10 06:41:12;;;;;;;7.78;5.20;;;22.60;99.90;;;;;;5084946;28;20207;-70
2022/06/10 06:43:38;;;;;;;5.07;4.68;;;22.60;99.90;;;;;;5083609;28;20205;-70
2022/06/10 06:46:05;;;;;;;7.47;5.15;;;22.70;99.90;;;;;;5094941;28;20235;-69
2022/06/10 06:48:32;;;;;;;9.20;5.43;;;22.70;99.90;;;;;;5094581;28;20227;-71
2022/06/10 06:50:59;;;;;;;6.80;5.75;;;22.60;99.90;;;;;;5090265;28;20205;-69
2022/06/10 06:53:26;;;;;;;5.72;5.20;;;22.70;99.90;;;;;;5087687;28;20209;-72
2022/06/10 06:55:54;;;;;;;4.95;4.53;;;22.70;99.90;;;;;;5093834;28;20680;-69
2022/06/10 06:58:21;;;;;;;6.85;5.03;;;22.70;99.90;;;;;;5094060;28;20216;-71
2022/06/10 07:00:48;;;;;;;5.85;4.82;;;22.80;99.90;;;;;;5086639;28;20213;-70
2022/06/10 07:03:15;;;;;;;7.82;5.13;;;22.90;99.90;;;;;;5073340;28;21292;-70
2022/06/10 07:05:42;;;;;;;6.82;5.18;;;23.00;99.90;;;;;;5079795;28;20205;-69
2022/06/10 07:08:09;;;;;;;8.02;5.05;;;23.20;99.90;;;;;;5076938;28;20205;-69
2022/06/10 07:10:36;;;;;;;8.07;4.68;;;23.40;99.90;;;;;;5090603;28;20645;-70
2022/06/10 07:13:05;;;;;;;5.10;4.57;;;23.40;99.90;;;;;;5087225;28;20213;-70
2022/06/10 07:15:32;;;;;;;4.88;4.47;;;23.50;99.90;;;;;;5087097;28;20228;-70
2022/06/10 07:17:59;;;;;;;6.15;4.25;;;23.50;99.90;;;;;;5073090;28;20216;-70
2022/06/10 07:20:29;;;;;;;7.10;4.07;;;23.50;99.90;;;;;;5076644;28;20205;-70
2022/06/10 07:22:57;;;;;;;8.18;4.20;;;23.60;99.90;;;;;;5083261;28;20212;-70
2022/06/10 07:25:25;;;;;;;4.43;4.03;;;23.90;99.90;;;;;;5079206;28;20198;-70
2022/06/10 07:27:55;;;;;;;4.80;4.18;;;24.00;99.90;;;;;;5084143;28;20216;-70
2022/06/10 07:30:27;;;;;;;7.80;5.18;;;24.10;99.90;;;;;;5078064;28;20283;-70
2022/06/10 07:32:54;;;;;;;5.20;4.30;;;24.10;99.90;;;;;;5088373;28;20204;-71
2022/06/10 07:35:22;;;;;;;4.82;4.05;;;24.10;99.90;;;;;;5088107;28;20204;-70
2022/06/10 07:37:50;;;;;;;5.28;4.40;;;24.10;99.90;;;;;;5088943;28;20208;-70
2022/06/10 07:43:00;;;;;;;8.23;4.43;;;24.30;99.90;;;;;;5077044;28;20834;-68
2022/06/10 07:45:28;;;;;;;4.10;3.80;;;24.40;99.90;;;;;;5077643;28;20249;-70
2022/06/10 07:47:55;;;;;;;4.28;3.88;;;24.50;99.90;;;;;;5076341;28;20670;-70
2022/06/10 07:50:23;;;;;;;7.65;3.67;;;24.60;99.90;;;;;;5077006;28;20221;-71
2022/06/10 07:52:50;;;;;;;4.18;3.78;;;24.60;99.90;;;;;;5074324;28;20212;-70
2022/06/10 07:55:16;;;;;;;5.60;3.60;;;24.60;99.90;;;;;;5086408;28;20211;-70
2022/06/10 07:57:43;;;;;;;4.45;4.00;;;24.70;99.90;;;;;;5087119;28;20637;-70
2022/06/10 08:00:12;;;;;;;6.40;4.10;;;24.80;99.90;;;;;;5073541;28;20206;-70
2022/06/10 08:02:41;;;;;;;3.70;3.40;;;24.90;99.90;;;;;;5076400;28;20797;-70
2022/06/10 08:05:11;;;;;;;3.78;3.40;;;25.00;99.90;;;;;;5074455;28;20202;-70
2022/06/10 08:07:38;;;;;;;4.22;3.70;;;25.20;99.90;;;;;;5077361;28;20698;-71
2022/06/10 08:10:06;;;;;;;4.32;3.13;;;25.30;99.90;;;;;;5084778;28;20238;-70
2022/06/10 08:12:33;;;;;;;3.45;3.00;;;25.50;99.90;;;;;;5086986;28;20213;-71
2022/06/10 08:15:00;;;;;;;5.22;2.90;;;25.60;99.90;;;;;;5088382;28;20992;-71
2022/06/10 08:17:27;;;;;;;4.32;3.38;;;25.50;99.90;;;;;;5082534;28;20649;-71
2022/06/10 08:19:55;;;;;;;4.28;2.47;;;25.50;99.90;;;;;;5085148;28;20200;-71
2022/06/10 08:22:33;;;;;;;3.88;2.58;;;25.50;99.90;;;;;;5074266;28;20212;-71
2022/06/10 08:24:59;;;;;;;5.53;2.83;;;25.60;99.90;;;;;;5072873;28;20200;-71
2022/06/10 08:27:27;;;;;;;2.83;2.63;;;25.60;99.90;;;;;;5072537;28;20201;-73
2022/06/10 08:29:55;;;;;;;2.80;2.55;;;25.70;99.90;;;;;;5078787;28;20536;-70
2022/06/10 08:32:21;;;;;;;2.60;2.40;;;25.70;99.90;;;;;;5080434;28;20287;-70
2022/06/10 08:34:48;;;;;;;3.30;2.47;;;25.70;99.90;;;;;;5078631;28;20723;-71
2022/06/10 08:37:17;;;;;;;2.65;2.45;;;25.80;99.90;;;;;;5075960;28;20208;-70
2022/06/10 08:39:44;;;;;;;2.67;2.47;;;25.80;99.90;;;;;;5091229;28;20204;-72
2022/06/10 08:42:21;;;;;;;2.38;2.20;;;26.00;99.90;;;;;;5073160;28;20211;-71
2022/06/10 08:44:52;;;;;;;3.15;2.28;;;26.10;99.90;;;;;;5076482;28;20208;-69
2022/06/10 08:47:48;;;;;;;2.78;2.55;;;26.30;99.90;;;;;;5076468;28;20207;-70
2022/06/10 08:50:44;;;;;;;1.98;1.88;;;26.50;99.90;;;;;;5064977;28;20232;-71
2022/06/10 08:53:30;;;;;;;3.47;2.55;;;26.60;99.90;;;;;;5077010;28;20556;-70
2022/06/10 08:56:03;;;;;;;2.92;2.70;;;26.60;99.90;;;;;;5089924;28;20254;-70
2022/06/10 08:58:35;;;;;;;2.95;2.45;;;26.60;99.90;;;;;;5089627;28;20295;-70
2022/06/10 09:01:06;;;;;;;2.67;2.47;;;26.60;99.90;;;;;;5077027;28;20201;-71
2022/06/10 09:03:37;;;;;;;2.78;2.55;;;26.60;99.90;;;;;;5078987;28;20200;-71
2022/06/10 09:06:09;;;;;;;3.45;3.15;;;26.70;99.90;;;;;;5074708;28;20542;-71
2022/06/10 09:08:40;;;;;;;5.72;2.95;;;26.90;99.90;;;;;;5075911;28;20201;-73
2022/06/10 09:11:17;;;;;;;3.08;2.30;;;27.00;99.90;;;;;;5076466;28;20209;-73
2022/06/10 09:13:50;;;;;;;4.13;2.85;;;27.20;99.90;;;;;;5078333;28;20197;-72
2022/06/10 09:16:22;;;;;;;2.80;2.60;;;27.30;99.90;;;;;;5084683;28;20206;-70
2022/06/10 09:19:00;;;;;;;3.28;2.72;;;27.40;99.90;;;;;;5086514;28;20209;-70
2022/06/10 09:21:36;;;;;;;3.28;2.30;;;27.50;99.90;;;;;;5084080;28;20219;-71
2022/06/10 09:24:11;;;;;;;4.18;2.38;;;27.40;99.90;;;;;;5083717;28;20291;-70
2022/06/10 09:26:41;;;;;;;3.05;2.58;;;27.40;99.90;;;;;;5090415;28;20608;-74
2022/06/10 09:29:09;;;;;;;6.03;2.63;;;27.50;99.90;;;;;;5090588;28;20229;-75
2022/06/10 09:31:40;;;;;;;4.22;2.45;;;27.50;99.70;;;;;;5085256;28;20215;-73
2022/06/10 09:34:20;;;;;;;2.42;2.03;;;27.40;99.20;;;;;;5080738;28;20208;-72
2022/06/10 09:36:54;;;;;;;2.80;2.60;;;27.40;99.90;;;;;;5077267;28;20837;-74
2022/06/10 09:42:28;;;;;;;3.58;2.50;;;27.40;98.50;;;;;;5091410;28;20211;-72
2022/06/10 09:45:01;;;;;;;2.83;2.50;;;27.40;98.50;;;;;;5094082;28;20665;-73
2022/06/10 09:47:40;;;;;;;2.80;2.60;;;27.40;98.50;;;;;;5089422;28;20204;-71
2022/06/10 09:50:14;;;;;;;2.45;2.20;;;27.50;98.20;;;;;;5089714;28;20223;-72
2022/06/10 09:52:50;;;;;;;4.70;2.28;;;27.60;98.00;;;;;;5076115;28;20219;-70
2022/06/10 09:55:31;;;;;;;3.28;2.97;;;27.60;97.90;;;;;;5082189;28;20201;-71
2022/06/10 09:58:19;;;;;;;2.33;2.13;;;27.70;98.10;;;;;;5077053;28;20193;-71
2022/06/10 10:00:56;;;;;;;4.07;2.67;;;27.70;97.50;;;;;;5077448;28;20676;-71
2022/06/10 10:03:42;;;;;;;2.95;2.65;;;27.80;97.00;;;;;;5087653;28;20597;-72
2022/06/10 10:06:27;;;;;;;2.70;2.50;;;27.80;97.00;;;;;;5077219;28;20202;-74
2022/06/10 10:09:02;;;;;;;3.85;2.50;;;27.80;96.60;;;;;;5078403;28;20197;-71
2022/06/10 10:11:37;;;;;;;3.45;2.60;;;27.80;96.70;;;;;;5074262;28;20572;-73
2022/06/10 10:14:12;;;;;;;2.17;2.08;;;27.80;96.40;;;;;;5077387;28;20236;-70
2022/06/10 10:16:53;;;;;;;2.58;2.35;;;27.80;96.60;;;;;;5076856;28;20207;-73
2022/06/10 10:19:49;;;;;;;2.15;1.95;;;27.90;97.00;;;;;;5074758;28;20286;-70
2022/06/10 10:22:39;;;;;;;2.58;2.38;;;28.10;96.40;;;;;;5082631;28;20204;-71
2022/06/10 10:25:12;;;;;;;3.47;2.42;;;28.30;96.20;;;;;;5081896;28;20197;-71
2022/06/10 10:27:41;;;;;;;2.63;2.40;;;28.50;95.50;;;;;;5077064;28;20705;-71
2022/06/10 10:30:17;;;;;;;4.38;2.40;;;28.50;95.40;;;;;;5090307;28;20240;-71
2022/06/10 10:32:50;;;;;;;3.58;2.30;;;28.40;95.20;;;;;;5094644;28;20200;-71
2022/06/10 10:35:22;;;;;;;2.45;2.25;;;28.40;95.50;;;;;;5075927;28;20311;-70
2022/06/10 10:37:55;;;;;;;4.28;3.63;;;28.50;95.20;;;;;;5084465;28;20223;-70
2022/06/10 10:40:32;;;;;;;2.60;2.40;;;28.60;94.50;;;;;;5086162;28;20207;-70
2022/06/10 10:43:05;;;;;;;2.67;2.28;;;28.60;94.50;;;;;;5084206;28;20209;-71
2022/06/10 10:45:35;;;;;;;2.17;2.08;;;28.50;94.50;;;;;;5093052;28;20204;-71
2022/06/10 10:48:10;;;;;;;2.30;2.03;;;28.60;94.60;;;;;;5083140;28;20213;-71
2022/06/10 10:50:40;;;;;;;2.97;2.00;;;28.70;94.00;;;;;;5073621;28;20216;-71
2022/06/10 10:53:24;;;;;;;2.28;2.00;;;28.80;93.20;;;;;;5084681;28;20296;-72
2022/06/10 10:55:54;;;;;;;2.33;2.10;;;28.80;92.40;;;;;;5094412;28;20213;-71
2022/06/10 10:58:27;;;;;;;3.35;2.10;;;28.70;92.50;;;;;;5082077;28;20328;-70
2022/06/10 11:00:59;;;;;;;2.53;2.28;;;28.80;92.90;;;;;;5085467;28;20653;-71
2022/06/10 11:03:28;;;;;;;2.00;1.90;;;28.80;92.80;;;;;;5083329;28;20856;-72
2022/06/10 11:05:57;;;;;;;2.47;2.13;;;28.70;92.60;;;;;;5076362;28;20196;-72
2022/06/10 11:08:30;;;;;;;2.53;2.33;;;28.70;92.50;;;;;;5092783;28;20212;-71
2022/06/10 11:11:14;;;;;;;2.40;2.20;;;28.50;92.70;;;;;;5087479;28;20248;-71
2022/06/10 11:13:52;;;;;;;3.90;2.50;;;28.70;93.10;;;;;;5084877;28;20197;-72
2022/06/10 11:16:41;;;;;;;2.15;2.05;;;28.80;92.80;;;;;;5092196;28;20576;-70
2022/06/10 11:19:19;;;;;;;2.60;2.40;;;28.90;92.80;;;;;;5082999;28;20207;-71
2022/06/10 11:22:19;;;;;;;5.05;2.03;;;29.00;92.70;;;;;;5075042;28;20193;-70
2022/06/10 11:24:50;;;;;;;2.08;1.98;;;29.00;92.70;;;;;;5068414;28;20235;-70
2022/06/10 11:27:27;;;;;;;2.53;1.83;;;29.10;92.70;;;;;;5083764;28;20201;-72
2022/06/10 11:30:15;;;;;;;2.08;1.90;;;29.20;91.90;;;;;;5076321;28;20228;-70
2022/06/10 11:33:00;;;;;;;3.50;1.80;;;29.20;91.20;;;;;;5072003;28;20668;-70
2022/06/10 11:35:31;;;;;;;3.88;2.22;;;29.30;91.30;;;;;;5079976;28;20288;-71
2022/06/10 11:38:04;;;;;;;2.35;1.80;;;29.30;90.80;;;;;;5083040;28;20235;-71
2022/06/10 11:40:39;;;;;;;2.25;1.95;;;29.30;90.30;;;;;;5075615;28;20209;-71
2022/06/10 11:43:14;;;;;;;1.95;1.80;;;29.30;90.40;;;;;;5076292;28;20197;-71
2022/06/10 11:45:46;;;;;;;2.20;1.70;;;29.30;90.00;;;;;;5078096;28;20568;-71
2022/06/10 11:48:19;;;;;;;2.35;1.80;;;29.30;89.10;;;;;;5076417;28;20646;-70
2022/06/10 11:50:54;;;;;;;2.28;2.03;;;29.40;89.50;;;;;;5079864;28;20641;-70
2022/06/10 11:53:37;;;;;;;2.50;1.67;;;29.50;89.10;;;;;;5078248;28;20205;-71
2022/06/10 12:01:47;;;;;;;4.03;1.58;;;29.90;87.90;;;;;;5076721;28;20201;-70
2022/06/10 12:04:21;;;;;;;4.22;2.33;;;30.20;87.60;;;;;;5087836;28;20219;-68
2022/06/10 12:06:52;;;;;;;2.67;2.08;;;30.40;86.40;;;;;;5081513;28;20677;-69
2022/06/10 12:09:24;;;;;;;2.20;2.00;;;30.30;86.20;;;;;;5089306;28;20573;-69
2022/06/10 12:11:56;;;;;;;2.30;2.10;;;30.10;86.30;;;;;;5077685;28;20227;-70
2022/06/10 12:14:28;;;;;;;4.53;1.98;;;29.90;86.70;;;;;;5083733;28;20233;-69
2022/06/10 12:17:03;;;;;;;1.95;1.85;;;29.70;87.40;;;;;;5079815;28;20200;-69
2022/06/10 12:19:34;;;;;;;4.50;2.25;;;29.40;86.40;;;;;;5087741;28;20196;-70
2022/06/10 12:22:01;;;;;;;1.98;1.88;;;29.40;86.60;;;;;;5073645;28;20194;-70
2022/06/10 12:24:28;;;;;;;2.20;2.00;;;29.30;86.40;;;;;;5080177;28;20220;-70
2022/06/10 12:26:59;;;;;;;2.13;1.92;;;29.10;87.40;;;;;;5075934;28;20220;-70
2022/06/10 12:29:35;;;;;;;2.63;2.42;;;29.00;88.30;;;;;;5072266;28;20231;-70
2022/06/10 12:32:13;;;;;;;3.88;2.28;;;28.90;88.80;;;;;;5081754;28;20209;-70
2022/06/10 12:34:57;;;;;;;2.50;2.30;;;28.70;90.00;;;;;;5076827;28;20204;-71
2022/06/10 12:37:30;;;;;;;2.83;2.63;;;28.80;90.30;;;;;;5077276;28;20197;-69
2022/06/10 12:40:02;;;;;;;2.70;2.50;;;28.90;90.30;;;;;;5084856;28;20208;-70
2022/06/10 12:42:37;;;;;;;3.10;2.80;;;29.00;90.20;;;;;;5093589;28;20661;-75
2022/06/10 12:45:10;;;;;;;3.60;3.30;;;29.00;90.20;;;;;;5087618;28;20205;-75
2022/06/10 12:47:40;;;;;;;4.10;3.70;;;29.00;90.10;;;;;;5083595;28;20558;-75
2022/06/10 12:50:19;;;;;;;3.50;3.20;;;29.00;90.20;;;;;;5085745;28;20212;-77
2022/06/10 12:53:17;;;;;;;5.93;4.00;;;29.00;90.30;;;;;;5077612;28;20577;-70
2022/06/10 12:55:48;;;;;;;5.00;3.97;;;29.10;90.20;;;;;;5075329;28;20575;-69
2022/06/10 12:58:43;;;;;;;4.28;3.95;;;28.80;90.20;;;;;;5085303;28;20200;-70
2022/06/10 13:01:19;;;;;;;6.75;4.75;;;28.40;90.70;;;;;;5075847;28;20228;-70
2022/06/10 13:03:49;;;;;;;5.80;5.20;;;27.90;91.30;;;;;;5089813;28;20201;-70
2022/06/10 13:06:56;;;;;;;5.03;4.60;;;27.50;91.90;;;;;;5095689;28;20208;-70
2022/06/10 13:09:28;;;;;;;5.10;4.70;;;27.30;92.70;;;;;;5093929;28;20220;-70
2022/06/10 13:12:00;;;;;;;6.45;4.93;;;27.10;93.20;;;;;;5097061;28;20596;-69
2022/06/10 13:14:39;;;;;;;5.50;4.43;;;26.80;93.60;;;;;;5092763;28;20727;-71
2022/06/10 13:17:20;;;;;;;4.22;3.83;;;26.60;94.10;;;;;;5075120;28;20198;-69
2022/06/10 13:20:22;;;;;;;3.97;3.65;;;26.40;94.60;;;;;;5079974;28;20238;-72
2022/06/10 13:23:09;;;;;;;3.38;2.80;;;26.30;94.90;;;;;;5087560;28;20214;-69
2022/06/10 13:25:35;;;;;;;2.28;2.17;;;26.20;95.20;;;;;;5096661;28;20220;-70
2022/06/10 13:28:02;;;;;;;2.05;1.80;;;26.00;95.60;;;;;;5081520;28;20684;-68
2022/06/10 13:30:31;;;;;;;2.42;2.00;;;25.90;96.00;;;;;;5079209;28;20232;-69